Terminal Aerodrome Forecast
Issued by NWS

Home | Current Version | Previous Version | Text Only | Print | Product List | Glossary On
Versions: 1 2 3 4 5 6 7 8 9 10 11 12 13 14 15 16
000
FTAK31 PAFA 232333
TAFAOM
TAF
PAOM 232333Z 2400/2424 20008KT P6SM -RA SCT010 BKN014 OVC045
     FM240800 07007KT 4SM -SHRA BR BKN012 OVC050
     FM241100 06009KT 2SM -SHRA BR BKN007 OVC015
     FM241600 35010KT 1 1/2SM -RA BR OVC007
     FM241800 23012KT 1 1/2SM -RA BR OVC007=

USA.gov is the U.S. government's official web portal to all federal, state and local government web resources and services.